createdAt,value
2023-04-21T00:01:26.384Z,98394.66
2023-04-21T00:03:53.267Z,98399.91
2023-04-21T00:06:23.058Z,98392.09
2023-04-21T00:08:50.950Z,98394.75
2023-04-21T00:11:18.404Z,98393.88
2023-04-21T00:13:45.313Z,98387.78
2023-04-21T00:16:12.149Z,98387.78
2023-04-21T00:18:38.955Z,98394.75
2023-04-21T00:21:05.698Z,98381.69
2023-04-21T00:23:32.353Z,98382.56
2023-04-21T00:25:59.565Z,98377.38
2023-04-21T00:28:26.260Z,98384.31
2023-04-21T00:30:54.501Z,98378.22
2023-04-21T00:33:21.228Z,98375.53
2023-04-21T00:35:47.785Z,98377.28
2023-04-21T00:38:14.368Z,98379.03
2023-04-21T00:40:41.064Z,98372.91
2023-04-21T00:43:07.808Z,98371.19
2023-04-21T00:45:34.497Z,98374.75
2023-04-21T00:48:01.202Z,98362.72
2023-04-21T00:50:28.571Z,98379.31
2023-04-21T00:52:56.387Z,98375.03
2023-04-21T00:55:23.294Z,98371.56
2023-04-21T00:57:52.299Z,98364.66
2023-04-21T01:00:19.173Z,98363.75
2023-04-21T01:02:46.551Z,98355.09
2023-04-21T01:05:13.622Z,98365.50
2023-04-21T01:07:40.416Z,98355.94
2023-04-21T01:10:07.900Z,98356.84
2023-04-21T01:12:42.509Z,98367.25
2023-04-21T01:15:09.618Z,98360.34
2023-04-21T01:17:38.698Z,98360.38
2023-04-21T01:20:09.032Z,98359.47
2023-04-21T01:22:41.860Z,98354.31
2023-04-21T01:25:09.852Z,98355.19
2023-04-21T01:27:36.942Z,98369.06
2023-04-21T01:30:05.605Z,98361.25
2023-04-21T01:32:32.781Z,98362.09
2023-04-21T01:34:59.920Z,98362.16
2023-04-21T01:37:30.775Z,98357.81
2023-04-21T01:40:00.088Z,98367.34
2023-04-21T01:42:29.577Z,98364.72
2023-04-21T01:44:56.885Z,98362.09
2023-04-21T01:47:25.391Z,98363.84
2023-04-21T01:49:52.857Z,98365.56
2023-04-21T01:52:20.011Z,98363.84
2023-04-21T01:54:46.692Z,98368.22
2023-04-21T01:57:13.374Z,98368.22
2023-04-21T01:59:40.099Z,98361.25
2023-04-21T02:02:07.003Z,98363.00
2023-04-21T02:04:34.346Z,98355.19
2023-04-21T02:07:01.241Z,98352.56
2023-04-21T02:09:28.246Z,98356.94
2023-04-21T02:11:57.840Z,98362.09
2023-04-21T02:14:25.803Z,98365.59
2023-04-21T02:16:52.765Z,98349.16
2023-04-21T02:19:19.812Z,98348.31
2023-04-21T02:21:46.571Z,98360.41
2023-04-21T02:24:13.175Z,98362.16
2023-04-21T02:26:39.763Z,98363.03
2023-04-21T02:29:06.512Z,98359.56
2023-04-21T02:31:34.921Z,98361.31
2023-04-21T02:34:07.768Z,98362.19
2023-04-21T02:36:34.439Z,98362.19
2023-04-21T02:39:01.209Z,98363.91
2023-04-21T02:41:27.791Z,98360.44
2023-04-21T02:43:54.348Z,98360.44
2023-04-21T02:46:20.991Z,98375.19
2023-04-21T02:48:47.619Z,98374.28
2023-04-21T02:51:15.708Z,98373.44
2023-04-21T02:53:42.765Z,98381.22
2023-04-21T02:56:09.943Z,98371.69
2023-04-21T02:58:37.428Z,98373.44
2023-04-21T03:01:05.626Z,98375.16
2023-04-21T03:03:33.284Z,98378.63
2023-04-21T03:06:05.381Z,98371.72
2023-04-21T03:08:32.648Z,98364.78
2023-04-21T03:10:59.582Z,98367.38
2023-04-21T03:13:26.328Z,98357.00
2023-04-21T03:15:53.429Z,98355.22
2023-04-21T03:18:20.093Z,98359.59
2023-04-21T03:20:46.663Z,98357.00
2023-04-21T03:23:13.705Z,98365.66
2023-04-21T03:25:40.456Z,98362.16
2023-04-21T03:28:07.300Z,98371.72
2023-04-21T03:30:33.904Z,98362.19
2023-04-21T03:33:00.729Z,98354.38
2023-04-21T03:35:27.720Z,98360.44
2023-04-21T03:37:54.784Z,98357.81
2023-04-21T03:40:21.487Z,98369.09
2023-04-21T03:42:48.008Z,98359.56
2023-04-21T03:45:14.712Z,98361.28
2023-04-21T03:47:41.495Z,98358.69
2023-04-21T03:50:08.726Z,98351.72
2023-04-21T03:52:35.433Z,98360.41
2023-04-21T03:55:02.407Z,98365.59
2023-04-21T03:57:29.233Z,98368.16
2023-04-21T03:59:55.935Z,98366.44
2023-04-21T04:02:22.809Z,98367.31
2023-04-21T04:04:49.698Z,98365.59
2023-04-21T04:07:17.736Z,98369.94
2023-04-21T04:09:44.919Z,98369.06
2023-04-21T04:12:12.019Z,98379.44
2023-04-21T04:14:39.681Z,98378.59
2023-04-21T04:17:06.534Z,98370.78
2023-04-21T04:19:33.474Z,98370.78
2023-04-21T04:22:01.619Z,98367.31
2023-04-21T04:24:28.609Z,98378.59
2023-04-21T04:26:55.480Z,98384.66
2023-04-21T04:29:22.774Z,98382.91
2023-04-21T04:31:52.754Z,98378.59
2023-04-21T04:34:19.690Z,98395.88
2023-04-21T04:36:48.175Z,98388.97
2023-04-21T04:39:16.801Z,98382.91
2023-04-21T04:41:43.516Z,98384.63
2023-04-21T04:44:11.379Z,98391.56
2023-04-21T04:46:39.374Z,98387.28
2023-04-21T04:49:06.048Z,98384.69
2023-04-21T04:51:32.845Z,98389.03
2023-04-21T04:53:59.535Z,98392.50
2023-04-21T04:56:26.284Z,98379.53
2023-04-21T04:58:52.969Z,98382.13
2023-04-21T05:01:19.673Z,98382.97
2023-04-21T05:03:46.694Z,98379.47
2023-04-21T05:06:14.553Z,98373.38
2023-04-21T05:08:44.231Z,98372.47
2023-04-21T05:11:11.100Z,98368.94
2023-04-21T05:13:39.778Z,98368.84
2023-04-21T05:16:07.630Z,98369.63
2023-04-21T05:18:34.214Z,98366.00
2023-04-21T05:21:01.061Z,98358.06
2023-04-21T05:23:27.949Z,98352.75
2023-04-21T05:25:54.639Z,98365.59
2023-04-21T05:28:21.338Z,98356.72
2023-04-21T05:30:48.151Z,98362.69
2023-04-21T05:33:14.908Z,98357.28
2023-04-21T05:35:41.602Z,98363.16
2023-04-21T05:38:08.384Z,98358.78
2023-04-21T05:40:34.996Z,98370.78
2023-04-21T05:43:01.819Z,98363.94
2023-04-21T05:45:28.463Z,98367.34
2023-04-21T05:47:55.160Z,98371.22
2023-04-21T05:50:21.929Z,98371.75
2023-04-21T05:52:48.791Z,98366.91
2023-04-21T05:55:15.480Z,98360.41
2023-04-21T05:57:42.266Z,98357.25
2023-04-21T06:00:09.739Z,98356.41
2023-04-21T06:02:36.615Z,98361.41
2023-04-21T06:05:03.907Z,98361.91
2023-04-21T06:07:30.865Z,98367.56
2023-04-21T06:09:58.138Z,98366.06
2023-04-21T06:12:24.830Z,98371.91
2023-04-21T06:14:51.635Z,98371.56
2023-04-21T06:17:18.659Z,98372.88
2023-04-21T06:19:45.520Z,98368.06
2023-04-21T06:22:12.115Z,98364.28
2023-04-21T06:24:38.824Z,98365.47
2023-04-21T06:27:11.075Z,98362.31
2023-04-21T06:29:37.883Z,98366.41
2023-04-21T06:32:04.643Z,98358.16
2023-04-21T06:34:31.548Z,98355.91
2023-04-21T06:36:58.320Z,98363.22
2023-04-21T06:39:24.996Z,98353.50
2023-04-21T06:41:51.727Z,98353.66
2023-04-21T06:44:19.209Z,98362.78
2023-04-21T06:46:46.488Z,98359.28
2023-04-21T06:49:13.143Z,98353.81
2023-04-21T06:51:39.817Z,98354.31
2023-04-21T06:54:06.494Z,98357.84
2023-04-21T06:56:33.697Z,98356.00
2023-04-21T06:59:00.385Z,98358.78
2023-04-21T07:01:27.249Z,98350.09
2023-04-21T07:03:54.136Z,98348.56
2023-04-21T07:06:20.891Z,98357.84
2023-04-21T07:08:47.522Z,98357.72
2023-04-21T07:11:14.112Z,98341.66
2023-04-21T07:13:40.884Z,98338.22
2023-04-21T07:16:07.538Z,98344.22
2023-04-21T07:18:34.847Z,98342.84
2023-04-21T07:21:01.700Z,98328.38
2023-04-21T07:23:28.593Z,98343.56
2023-04-21T07:25:55.310Z,98340.59
2023-04-21T07:28:22.162Z,98332.31
2023-04-21T07:30:48.996Z,98326.63
2023-04-21T07:33:15.912Z,98331.84
2023-04-21T07:35:42.702Z,98332.16
2023-04-21T07:38:09.892Z,98331.25
2023-04-21T07:40:36.461Z,98329.75
2023-04-21T07:43:03.471Z,98334.16
2023-04-21T07:45:30.357Z,98331.63
2023-04-21T07:47:57.180Z,98322.69
2023-04-21T07:50:23.828Z,98328.81
2023-04-21T07:52:50.641Z,98321.38
2023-04-21T07:55:17.498Z,98325.28
2023-04-21T07:57:44.249Z,98320.84
2023-04-21T08:00:11.899Z,98323.03
2023-04-21T08:02:38.621Z,98320.97
2023-04-21T08:05:05.652Z,98316.19
2023-04-21T08:07:32.358Z,98302.16
2023-04-21T08:10:00.514Z,98317.59
2023-04-21T08:12:27.508Z,98306.47
2023-04-21T08:14:58.171Z,98307.91
2023-04-21T08:17:25.403Z,98313.19
2023-04-21T08:19:52.390Z,98310.78
2023-04-21T08:22:19.010Z,98304.09
2023-04-21T08:24:45.778Z,98313.44
2023-04-21T08:27:12.626Z,98309.06
2023-04-21T08:29:39.505Z,98313.00
2023-04-21T08:32:06.389Z,98305.63
2023-04-21T08:34:33.149Z,98306.03
2023-04-21T08:36:59.890Z,98307.41
2023-04-21T08:39:27.121Z,98302.56
2023-04-21T08:41:54.200Z,98301.84
2023-04-21T08:44:21.900Z,98298.44
2023-04-21T08:46:52.129Z,98293.50
2023-04-21T08:49:21.116Z,98303.84
2023-04-21T08:51:48.189Z,98300.94
2023-04-21T08:54:14.960Z,98294.13
2023-04-21T08:56:41.821Z,98289.78
2023-04-21T08:59:08.681Z,98285.91
2023-04-21T09:02:16.462Z,98289.31
2023-04-21T09:04:46.386Z,98287.44
2023-04-21T09:07:32.494Z,98290.88
2023-04-21T09:10:00.731Z,98294.69
2023-04-21T09:12:28.390Z,98287.22
2023-04-21T09:14:55.500Z,98289.19
2023-04-21T09:17:27.913Z,98289.06
2023-04-21T09:19:54.797Z,98297.59
2023-04-21T09:22:27.073Z,98283.09
2023-04-21T09:25:02.743Z,98287.38
2023-04-21T09:27:29.648Z,98277.28
2023-04-21T09:30:03.891Z,98280.88
2023-04-21T09:32:30.929Z,98285.09
2023-04-21T09:35:01.218Z,98281.69
2023-04-21T09:37:34.008Z,98277.38
2023-04-21T09:42:31.348Z,98273.97
2023-04-21T09:45:16.417Z,98276.22
2023-04-21T09:47:50.976Z,98275.69
2023-04-21T09:50:35.776Z,98283.09
2023-04-21T09:53:09.960Z,98282.78
2023-04-21T09:55:37.190Z,98279.38
2023-04-21T09:58:07.412Z,98273.56
2023-04-21T10:00:39.738Z,98275.38
2023-04-21T10:03:11.615Z,98275.22
2023-04-21T10:05:42.058Z,98272.03
2023-04-21T10:08:11.988Z,98267.25
2023-04-21T10:10:40.104Z,98263.06
2023-04-21T10:13:07.716Z,98268.53
2023-04-21T10:15:38.812Z,98259.75
2023-04-21T10:18:23.946Z,98249.03
2023-04-21T10:20:56.854Z,98249.38
2023-04-21T10:23:42.789Z,98256.63
2023-04-21T10:26:11.053Z,98247.56
2023-04-21T10:28:48.693Z,98243.06
2023-04-21T10:31:23.844Z,98237.09
2023-04-21T10:34:18.052Z,98241.16
2023-04-21T10:36:57.707Z,98241.59
2023-04-21T10:39:28.264Z,98228.56
2023-04-21T10:41:59.250Z,98232.38
2023-04-21T10:44:29.324Z,98235.56
2023-04-21T10:46:59.088Z,98227.25
2023-04-21T10:49:28.143Z,98222.03
2023-04-21T10:51:57.997Z,98221.69
2023-04-21T10:54:31.779Z,98216.06
2023-04-21T10:56:59.512Z,98213.03
2023-04-21T10:59:29.301Z,98205.91
2023-04-21T11:01:56.174Z,98207.91
2023-04-21T11:04:24.235Z,98209.31
2023-04-21T11:07:15.196Z,98205.16
2023-04-21T11:09:42.823Z,98207.25
2023-04-21T11:12:18.406Z,98196.41
2023-04-21T11:14:48.393Z,98194.22
2023-04-21T11:17:17.230Z,98189.03
2023-04-21T11:19:50.822Z,98189.94
2023-04-21T11:22:20.024Z,98181.66
2023-04-21T11:24:48.417Z,98180.63
2023-04-21T11:27:15.759Z,98177.28
2023-04-21T11:29:42.839Z,98180.34
2023-04-21T11:32:10.268Z,98170.09
2023-04-21T11:34:38.669Z,98174.53
2023-04-21T11:37:08.629Z,98178.47
2023-04-21T11:39:35.925Z,98178.38
2023-04-21T11:42:03.239Z,98172.22
2023-04-21T11:44:33.875Z,98164.97
2023-04-21T11:47:01.177Z,98159.75
2023-04-21T11:49:29.730Z,98161.03
2023-04-21T11:51:56.879Z,98151.38
2023-04-21T11:54:24.772Z,98147.25
2023-04-21T11:56:54.970Z,98139.59
2023-04-21T11:59:26.491Z,98141.31
2023-04-21T12:01:54.749Z,98141.06
2023-04-21T12:04:23.543Z,98136.56
2023-04-21T12:07:05.318Z,98127.63
2023-04-21T12:09:32.222Z,98130.78
2023-04-21T12:12:02.016Z,98135.66
2023-04-21T12:14:28.839Z,98131.63
2023-04-21T12:16:57.887Z,98133.84
2023-04-21T12:19:34.874Z,98128.66
2023-04-21T12:22:02.043Z,98132.09
2023-04-21T12:24:28.731Z,98124.84
2023-04-21T12:26:56.251Z,98124.38
2023-04-21T12:29:23.390Z,98119.84
2023-04-21T12:31:50.119Z,98124.66
2023-04-21T12:34:16.994Z,98128.13
2023-04-21T12:36:43.885Z,98107.41
2023-04-21T12:39:14.156Z,98113.78
2023-04-21T12:41:41.066Z,98107.72
2023-04-21T12:44:07.699Z,98108.28
2023-04-21T12:46:34.603Z,98109.59
2023-04-21T12:49:02.284Z,98106.50
2023-04-21T12:51:29.183Z,98109.28
2023-04-21T12:53:55.959Z,98099.69
2023-04-21T12:56:22.813Z,98103.47
2023-04-21T12:58:49.689Z,98109.53
2023-04-21T13:01:17.378Z,98097.94
2023-04-21T13:03:44.340Z,98093.63
2023-04-21T13:06:12.036Z,98094.63
2023-04-21T13:08:38.866Z,98089.19
2023-04-21T13:11:05.899Z,98093.44
2023-04-21T13:13:32.703Z,98090.47
2023-04-21T13:15:59.484Z,98088.47
2023-04-21T13:18:26.624Z,98081.59
2023-04-21T13:20:53.609Z,98077.47
2023-04-21T13:23:20.954Z,98070.69
2023-04-21T13:25:48.465Z,98072.03
2023-04-21T13:28:15.364Z,98075.75
2023-04-21T13:30:45.702Z,98063.88
2023-04-21T13:33:15.319Z,98060.63
2023-04-21T13:35:42.778Z,98067.78
2023-04-21T13:38:09.708Z,98060.09
2023-04-21T13:40:37.260Z,98056.22
2023-04-21T13:43:04.171Z,98053.50
2023-04-21T13:45:31.599Z,98047.97
2023-04-21T13:48:01.376Z,98039.25
2023-04-21T13:50:28.473Z,98043.75
2023-04-21T13:52:55.353Z,98043.84
2023-04-21T13:55:22.209Z,98045.88
2023-04-21T13:57:49.336Z,98043.75
2023-04-21T14:00:16.785Z,98048.78
2023-04-21T14:02:44.087Z,98042.03
2023-04-21T14:05:11.296Z,98036.06
2023-04-21T14:07:38.472Z,98030.81
2023-04-21T14:10:08.799Z,98039.03
2023-04-21T14:12:35.897Z,98039.44
2023-04-21T14:15:05.426Z,98035.91
2023-04-21T14:17:33.226Z,98033.06
2023-04-21T14:20:00.969Z,98037.25
2023-04-21T14:22:28.577Z,98028.38
2023-04-21T14:24:55.261Z,98030.28
2023-04-21T14:27:22.178Z,98016.22
2023-04-21T14:29:49.296Z,98017.94
2023-04-21T14:32:17.430Z,98016.66
2023-04-21T14:34:44.572Z,98009.81
2023-04-21T14:37:12.739Z,98007.44
2023-04-21T14:39:39.489Z,98008.41
2023-04-21T14:42:06.411Z,98009.81
2023-04-21T14:44:34.064Z,98010.84
2023-04-21T14:47:09.071Z,97998.47
2023-04-21T14:49:40.324Z,98001.50
2023-04-21T14:52:07.425Z,98010.34
2023-04-21T14:54:34.364Z,98008.75
2023-04-21T14:57:17.753Z,98004.69
2023-04-21T14:59:47.463Z,98005.31
2023-04-21T15:02:14.812Z,97988.47
2023-04-21T15:04:41.952Z,97998.50
2023-04-21T15:07:08.906Z,97980.78
2023-04-21T15:09:39.385Z,97981.22
2023-04-21T15:12:10.230Z,97983.34
2023-04-21T15:14:37.290Z,97971.16
2023-04-21T15:17:04.374Z,97964.31
2023-04-21T15:19:32.008Z,97966.78
2023-04-21T15:21:58.937Z,97969.81
2023-04-21T15:24:30.906Z,97969.47
2023-04-21T15:27:08.091Z,97972.78
2023-04-21T15:29:35.105Z,97983.34
2023-04-21T15:32:02.958Z,97973.53
2023-04-21T15:34:29.817Z,97977.13
2023-04-21T15:36:56.913Z,97967.06
2023-04-21T15:39:23.917Z,97970.88
2023-04-21T15:41:51.141Z,97971.31
2023-04-21T15:44:17.953Z,97967.47
2023-04-21T15:46:44.720Z,97970.88
2023-04-21T15:49:11.781Z,97954.44
2023-04-21T15:51:38.730Z,97958.09
2023-04-21T15:54:05.702Z,97961.00
2023-04-21T15:56:32.589Z,97950.66
2023-04-21T15:58:59.612Z,97949.16
2023-04-21T16:01:26.488Z,97949.38
2023-04-21T16:03:53.628Z,97946.91
2023-04-21T16:06:21.771Z,97953.19
2023-04-21T16:08:48.819Z,97948.69
2023-04-21T16:11:15.700Z,97952.72
2023-04-21T16:13:42.720Z,97949.97
2023-04-21T16:16:12.369Z,97948.03
2023-04-21T16:18:42.447Z,97945.25
2023-04-21T16:21:09.623Z,97935.03
2023-04-21T16:23:37.258Z,97932.88
2023-04-21T16:26:06.195Z,97931.81
2023-04-21T16:28:33.030Z,97927.91
2023-04-21T16:30:59.880Z,97945.66
2023-04-21T16:33:26.785Z,97941.34
2023-04-21T16:35:55.343Z,97939.38
2023-04-21T16:38:24.043Z,97939.03
2023-04-21T16:40:51.008Z,97933.09
2023-04-21T16:43:17.823Z,97939.28
2023-04-21T16:45:44.707Z,97932.84
2023-04-21T16:48:11.519Z,97930.44
2023-04-21T16:50:38.532Z,97930.75
2023-04-21T16:53:05.369Z,97919.88
2023-04-21T16:55:32.043Z,97931.25
2023-04-21T16:57:59.962Z,97926.22
2023-04-21T17:00:27.126Z,97922.81
2023-04-21T17:02:54.265Z,97921.97
2023-04-21T17:05:21.205Z,97936.41
2023-04-21T17:07:48.541Z,97927.13
2023-04-21T17:10:15.489Z,97916.16
2023-04-21T17:12:42.777Z,97920.84
2023-04-21T17:15:10.417Z,97916.97
2023-04-21T17:17:43.221Z,97918.00
2023-04-21T17:20:12.136Z,97921.25
2023-04-21T17:22:40.002Z,97918.13
2023-04-21T17:25:07.984Z,97913.22
2023-04-21T17:27:36.774Z,97917.16
2023-04-21T17:30:05.136Z,97909.88
2023-04-21T17:32:33.995Z,97914.91
2023-04-21T17:35:01.230Z,97915.56
2023-04-21T17:37:30.472Z,97915.88
2023-04-21T17:39:59.271Z,97920.69
2023-04-21T17:42:28.218Z,97912.72
2023-04-21T17:44:54.919Z,97920.50
2023-04-21T17:47:27.719Z,97910.66
2023-04-21T17:49:56.607Z,97929.94
2023-04-21T17:52:23.403Z,97916.22
2023-04-21T17:54:50.221Z,97915.13
2023-04-21T17:57:17.150Z,97920.75
2023-04-21T17:59:43.904Z,97912.38
2023-04-21T18:02:13.900Z,97920.59
2023-04-21T18:04:41.000Z,97916.94
2023-04-21T18:07:08.221Z,97923.75
2023-04-21T18:09:35.060Z,97924.72
2023-04-21T18:12:01.953Z,97923.00
2023-04-21T18:14:29.069Z,97926.34
2023-04-21T18:16:55.886Z,97920.22
2023-04-21T18:19:22.634Z,97919.88
2023-04-21T18:21:49.293Z,97921.22
2023-04-21T18:24:16.366Z,97924.50
2023-04-21T18:26:43.570Z,97921.00
2023-04-21T18:29:10.484Z,97923.31
2023-04-21T18:31:37.370Z,97925.28
2023-04-21T18:34:04.077Z,97919.88
2023-04-21T18:36:33.514Z,97933.06
2023-04-21T18:39:01.362Z,97927.84
2023-04-21T18:41:28.234Z,97928.97
2023-04-21T18:43:55.034Z,97930.00
2023-04-21T18:46:22.243Z,97934.06
2023-04-21T18:48:49.184Z,97932.09
2023-04-21T18:51:15.899Z,97935.50
2023-04-21T18:53:43.511Z,97936.47
2023-04-21T18:56:10.141Z,97928.38
2023-04-21T18:58:36.776Z,97933.53
2023-04-21T19:01:03.745Z,97934.31
2023-04-21T19:03:30.734Z,97930.41
2023-04-21T19:05:57.477Z,97935.25
2023-04-21T19:08:34.298Z,97944.28
2023-04-21T19:11:08.136Z,97941.63
2023-04-21T19:13:35.183Z,97953.19
2023-04-21T19:16:01.926Z,97958.81
2023-04-21T19:18:28.756Z,97956.56
2023-04-21T19:20:55.409Z,97960.00
2023-04-21T19:23:22.153Z,97960.84
2023-04-21T19:25:54.854Z,97955.69
2023-04-21T19:28:21.888Z,97960.06
2023-04-21T19:30:49.005Z,97964.59
2023-04-21T19:33:16.123Z,97964.44
2023-04-21T19:35:43.218Z,97966.00
2023-04-21T19:38:10.279Z,97969.25
2023-04-21T19:40:37.217Z,97973.31
2023-04-21T19:43:04.724Z,97978.91
2023-04-21T19:45:31.555Z,97979.34
2023-04-21T19:47:58.345Z,97979.34
2023-04-21T19:50:25.301Z,97978.78
2023-04-21T19:52:51.889Z,97982.84
2023-04-21T19:55:18.790Z,97988.53
2023-04-21T19:57:45.625Z,97981.81
2023-04-21T20:00:13.152Z,97987.09
2023-04-21T20:02:40.331Z,97987.53
2023-04-21T20:05:08.742Z,97987.53
2023-04-21T20:07:35.641Z,97987.84
2023-04-21T20:10:02.817Z,97992.91
2023-04-21T20:12:29.564Z,97985.25
2023-04-21T20:14:56.728Z,97984.84
2023-04-21T20:17:23.386Z,97976.41
2023-04-21T20:19:50.154Z,97981.78
2023-04-21T20:22:16.850Z,97992.88
2023-04-21T20:24:43.563Z,97981.38
2023-04-21T20:27:10.429Z,97985.09
2023-04-21T20:29:37.684Z,97986.81
2023-04-21T20:32:04.814Z,97993.31
2023-04-21T20:34:31.560Z,97995.78
2023-04-21T20:36:58.485Z,98001.66
2023-04-21T20:39:25.544Z,97990.81
2023-04-21T20:42:04.672Z,97989.66
2023-04-21T20:44:39.009Z,97992.78
2023-04-21T20:47:06.187Z,97986.66
2023-04-21T20:49:33.019Z,97986.56
2023-04-21T20:52:01.381Z,97987.25
2023-04-21T20:54:28.969Z,97992.38
2023-04-21T20:56:55.889Z,97983.28
2023-04-21T20:59:22.810Z,97981.72
2023-04-21T21:01:49.525Z,97984.75
2023-04-21T21:04:16.358Z,97989.13
2023-04-21T21:06:43.158Z,97982.06
2023-04-21T21:09:10.384Z,97978.34
2023-04-21T21:11:37.086Z,97980.94
2023-04-21T21:14:03.937Z,97977.34
2023-04-21T21:16:30.705Z,97987.41
2023-04-21T21:18:57.490Z,97983.16
2023-04-21T21:21:24.239Z,97987.41
2023-04-21T21:23:51.459Z,97987.56
2023-04-21T21:26:18.441Z,97979.19
2023-04-21T21:28:45.126Z,97983.38
2023-04-21T21:31:11.812Z,97989.59
2023-04-21T21:33:41.045Z,97976.66
2023-04-21T21:36:08.002Z,97980.97
2023-04-21T21:38:34.773Z,97976.84
2023-04-21T21:41:02.169Z,97975.81
2023-04-21T21:43:28.807Z,97978.44
2023-04-21T21:45:58.221Z,97981.88
2023-04-21T21:48:27.764Z,97992.50
2023-04-21T21:50:54.751Z,97995.97
2023-04-21T21:53:21.482Z,97993.47
2023-04-21T21:55:48.417Z,97993.09
2023-04-21T21:58:16.632Z,97988.59
2023-04-21T22:00:43.285Z,97994.00
2023-04-21T22:03:10.183Z,97987.75
2023-04-21T22:05:36.914Z,97989.59
2023-04-21T22:08:04.323Z,97989.66
2023-04-21T22:10:30.995Z,97983.38
2023-04-21T22:12:57.955Z,97987.09
2023-04-21T22:15:24.691Z,97978.81
2023-04-21T22:17:51.665Z,97989.91
2023-04-21T22:20:19.390Z,97987.28
2023-04-21T22:22:46.083Z,97980.97
2023-04-21T22:25:12.829Z,97976.22
2023-04-21T22:27:40.052Z,97972.63
2023-04-21T22:30:07.656Z,97983.84
2023-04-21T22:32:34.455Z,97981.41
2023-04-21T22:35:01.473Z,97986.81
2023-04-21T22:37:28.375Z,97973.03
2023-04-21T22:39:57.070Z,97983.38
2023-04-21T22:42:24.146Z,97980.81
2023-04-21T22:44:51.038Z,97976.66
2023-04-21T22:47:17.733Z,97971.50
2023-04-21T22:49:44.447Z,97980.75
2023-04-21T22:52:11.218Z,97976.34
2023-04-21T22:54:37.860Z,97976.94
2023-04-21T22:57:06.097Z,97972.63
2023-04-21T22:59:32.973Z,97975.53
2023-04-21T23:01:59.721Z,97970.25
2023-04-21T23:04:26.614Z,97968.47
2023-04-21T23:06:53.178Z,97973.13
2023-04-21T23:09:19.839Z,97969.41
2023-04-21T23:11:46.488Z,97967.72
2023-04-21T23:14:13.236Z,97966.13
2023-04-21T23:16:39.906Z,97964.13
2023-04-21T23:19:06.502Z,97957.38
2023-04-21T23:21:33.296Z,97955.09
2023-04-21T23:23:59.943Z,97949.22
2023-04-21T23:26:26.772Z,97952.66
2023-04-21T23:28:53.455Z,97940.25
2023-04-21T23:31:20.147Z,97942.66
2023-04-21T23:33:46.870Z,97947.84
2023-04-21T23:36:13.539Z,97945.59
2023-04-21T23:38:40.212Z,97946.31
2023-04-21T23:41:06.961Z,97935.13
2023-04-21T23:43:34.743Z,97934.50
2023-04-21T23:46:01.530Z,97933.50
2023-04-21T23:48:28.315Z,97932.59
2023-04-21T23:50:55.296Z,97939.06
2023-04-21T23:53:22.141Z,97935.91
2023-04-21T23:55:48.887Z,97940.50
2023-04-21T23:58:15.483Z,97944.69
